sensor_id;sensor_type;location;lat;lon;timestamp;temperature;humidity
20714;DHT22;10518;50.742;4.226;2023-11-21T00:01:40;11.00;99.90
20714;DHT22;10518;50.742;4.226;2023-11-21T00:04:05;11.00;99.90
20714;DHT22;10518;50.742;4.226;2023-11-21T00:06:32;11.10;99.90
20714;DHT22;10518;50.742;4.226;2023-11-21T00:08:58;11.10;99.90
20714;DHT22;10518;50.742;4.226;2023-11-21T00:11:24;11.00;99.90
20714;DHT22;10518;50.742;4.226;2023-11-21T00:13:51;11.00;99.90
20714;DHT22;10518;50.742;4.226;2023-11-21T00:16:16;10.90;99.90
20714;DHT22;10518;50.742;4.226;2023-11-21T00:18:42;10.90;99.90
20714;DHT22;10518;50.742;4.226;2023-11-21T00:21:08;10.90;99.90
20714;DHT22;10518;50.742;4.226;2023-11-21T00:23:34;10.80;99.90
20714;DHT22;10518;50.742;4.226;2023-11-21T00:26:00;10.70;99.90
20714;DHT22;10518;50.742;4.226;2023-11-21T00:28:26;10.60;99.90
20714;DHT22;10518;50.742;4.226;2023-11-21T00:30:51;10.60;99.90
20714;DHT22;10518;50.742;4.226;2023-11-21T00:33:17;10.50;99.90
20714;DHT22;10518;50.742;4.226;2023-11-21T00:35:44;10.40;99.90
20714;DHT22;10518;50.742;4.226;2023-11-21T00:38:09;10.40;99.90
20714;DHT22;10518;50.742;4.226;2023-11-21T00:40:35;10.40;99.90
20714;DHT22;10518;50.742;4.226;2023-11-21T00:43:00;10.40;99.90
20714;DHT22;10518;50.742;4.226;2023-11-21T00:45:26;10.30;99.90
20714;DHT22;10518;50.742;4.226;2023-11-21T00:47:53;10.20;99.90
20714;DHT22;10518;50.742;4.226;2023-11-21T00:50:18;10.20;99.90
20714;DHT22;10518;50.742;4.226;2023-11-21T00:52:44;10.10;99.90
20714;DHT22;10518;50.742;4.226;2023-11-21T00:55:10;10.00;99.90
20714;DHT22;10518;50.742;4.226;2023-11-21T00:57:37;9.90;99.90
20714;DHT22;10518;50.742;4.226;2023-11-21T01:00:03;9.90;99.90
20714;DHT22;10518;50.742;4.226;2023-11-21T01:02:33;9.80;99.90
20714;DHT22;10518;50.742;4.226;2023-11-21T01:05:01;9.70;99.90
20714;DHT22;10518;50.742;4.226;2023-11-21T01:07:26;9.60;99.90
20714;DHT22;10518;50.742;4.226;2023-11-21T01:09:52;9.50;99.90
20714;DHT22;10518;50.742;4.226;2023-11-21T01:12:18;9.50;99.90
20714;DHT22;10518;50.742;4.226;2023-11-21T01:14:44;9.50;99.90
20714;DHT22;10518;50.742;4.226;2023-11-21T01:17:10;9.50;99.90
20714;DHT22;10518;50.742;4.226;2023-11-21T01:19:36;9.60;99.90
20714;DHT22;10518;50.742;4.226;2023-11-21T01:22:02;9.60;99.90
20714;DHT22;10518;50.742;4.226;2023-11-21T01:24:29;9.60;99.90
20714;DHT22;10518;50.742;4.226;2023-11-21T01:26:55;9.60;99.90
20714;DHT22;10518;50.742;4.226;2023-11-21T01:29:20;9.70;99.90
20714;DHT22;10518;50.742;4.226;2023-11-21T01:31:46;9.70;99.90
20714;DHT22;10518;50.742;4.226;2023-11-21T01:34:12;9.80;99.90
20714;DHT22;10518;50.742;4.226;2023-11-21T01:36:39;9.80;99.90
20714;DHT22;10518;50.742;4.226;2023-11-21T01:39:05;9.90;99.90
20714;DHT22;10518;50.742;4.226;2023-11-21T01:41:34;9.90;99.90
20714;DHT22;10518;50.742;4.226;2023-11-21T01:44:00;10.00;99.90
20714;DHT22;10518;50.742;4.226;2023-11-21T01:46:26;10.10;99.90
20714;DHT22;10518;50.742;4.226;2023-11-21T01:48:52;10.10;99.90
20714;DHT22;10518;50.742;4.226;2023-11-21T01:51:20;10.20;99.90
20714;DHT22;10518;50.742;4.226;2023-11-21T01:53:46;10.30;99.90
20714;DHT22;10518;50.742;4.226;2023-11-21T01:56:12;10.30;99.90
20714;DHT22;10518;50.742;4.226;2023-11-21T01:58:39;10.30;99.90
20714;DHT22;10518;50.742;4.226;2023-11-21T02:01:05;10.30;99.90
20714;DHT22;10518;50.742;4.226;2023-11-21T02:03:30;10.30;99.90
20714;DHT22;10518;50.742;4.226;2023-11-21T02:05:56;10.30;99.90
20714;DHT22;10518;50.742;4.226;2023-11-21T02:08:22;10.30;99.90
20714;DHT22;10518;50.742;4.226;2023-11-21T02:10:47;10.40;99.90
20714;DHT22;10518;50.742;4.226;2023-11-21T02:13:13;10.50;99.90
20714;DHT22;10518;50.742;4.226;2023-11-21T02:15:39;10.50;99.90
20714;DHT22;10518;50.742;4.226;2023-11-21T02:18:05;10.50;99.90
20714;DHT22;10518;50.742;4.226;2023-11-21T02:20:31;10.40;99.90
20714;DHT22;10518;50.742;4.226;2023-11-21T02:23:00;10.40;99.90
20714;DHT22;10518;50.742;4.226;2023-11-21T02:25:32;10.40;99.90
20714;DHT22;10518;50.742;4.226;2023-11-21T02:27:59;10.50;99.90
20714;DHT22;10518;50.742;4.226;2023-11-21T02:30:26;10.50;99.90
20714;DHT22;10518;50.742;4.226;2023-11-21T02:32:53;10.60;99.90
20714;DHT22;10518;50.742;4.226;2023-11-21T02:35:20;10.70;99.90
20714;DHT22;10518;50.742;4.226;2023-11-21T02:37:49;10.70;99.90
20714;DHT22;10518;50.742;4.226;2023-11-21T02:40:15;10.70;99.90
20714;DHT22;10518;50.742;4.226;2023-11-21T02:42:47;10.70;99.90
20714;DHT22;10518;50.742;4.226;2023-11-21T02:45:14;10.70;99.90
20714;DHT22;10518;50.742;4.226;2023-11-21T02:47:42;10.70;99.90
20714;DHT22;10518;50.742;4.226;2023-11-21T02:50:08;10.70;99.90
20714;DHT22;10518;50.742;4.226;2023-11-21T02:52:35;10.70;99.90
20714;DHT22;10518;50.742;4.226;2023-11-21T02:55:04;10.80;99.90
20714;DHT22;10518;50.742;4.226;2023-11-21T02:57:30;10.80;99.90
20714;DHT22;10518;50.742;4.226;2023-11-21T02:59:55;10.80;99.90
20714;DHT22;10518;50.742;4.226;2023-11-21T03:02:21;10.80;99.90
20714;DHT22;10518;50.742;4.226;2023-11-21T03:04:48;10.80;99.90
20714;DHT22;10518;50.742;4.226;2023-11-21T03:07:15;10.80;99.90
20714;DHT22;10518;50.742;4.226;2023-11-21T03:09:40;10.80;99.90
20714;DHT22;10518;50.742;4.226;2023-11-21T03:12:06;10.80;99.90
20714;DHT22;10518;50.742;4.226;2023-11-21T03:14:31;10.80;99.90
20714;DHT22;10518;50.742;4.226;2023-11-21T03:17:00;10.80;99.90
20714;DHT22;10518;50.742;4.226;2023-11-21T03:19:30;10.80;99.90
20714;DHT22;10518;50.742;4.226;2023-11-21T03:21:56;10.80;99.90
20714;DHT22;10518;50.742;4.226;2023-11-21T03:24:22;10.80;99.90
20714;DHT22;10518;50.742;4.226;2023-11-21T03:26:48;10.80;99.90
20714;DHT22;10518;50.742;4.226;2023-11-21T03:29:14;10.80;99.90
20714;DHT22;10518;50.742;4.226;2023-11-21T03:31:40;10.90;99.90
20714;DHT22;10518;50.742;4.226;2023-11-21T03:34:06;10.90;99.90
20714;DHT22;10518;50.742;4.226;2023-11-21T03:36:32;10.90;99.90
20714;DHT22;10518;50.742;4.226;2023-11-21T03:38:57;10.80;99.90
20714;DHT22;10518;50.742;4.226;2023-11-21T03:41:23;10.80;99.90
20714;DHT22;10518;50.742;4.226;2023-11-21T03:43:48;10.80;99.90
20714;DHT22;10518;50.742;4.226;2023-11-21T03:46:14;10.80;99.90
20714;DHT22;10518;50.742;4.226;2023-11-21T03:48:40;10.80;99.90
20714;DHT22;10518;50.742;4.226;2023-11-21T03:51:05;10.80;99.90
20714;DHT22;10518;50.742;4.226;2023-11-21T03:53:32;10.80;99.90
20714;DHT22;10518;50.742;4.226;2023-11-21T03:55:57;10.80;99.90
20714;DHT22;10518;50.742;4.226;2023-11-21T03:58:23;10.80;99.90
20714;DHT22;10518;50.742;4.226;2023-11-21T04:00:48;10.90;99.90
20714;DHT22;10518;50.742;4.226;2023-11-21T04:03:14;10.80;99.90
20714;DHT22;10518;50.742;4.226;2023-11-21T04:05:40;10.80;99.90
20714;DHT22;10518;50.742;4.226;2023-11-21T04:08:06;10.70;99.90
20714;DHT22;10518;50.742;4.226;2023-11-21T04:10:32;10.70;99.90
20714;DHT22;10518;50.742;4.226;2023-11-21T04:12:58;10.70;99.90
20714;DHT22;10518;50.742;4.226;2023-11-21T04:15:23;10.70;99.90
20714;DHT22;10518;50.742;4.226;2023-11-21T04:17:49;10.70;99.90
20714;DHT22;10518;50.742;4.226;2023-11-21T04:20:15;10.80;99.90
20714;DHT22;10518;50.742;4.226;2023-11-21T04:22:41;10.80;99.90
20714;DHT22;10518;50.742;4.226;2023-11-21T04:25:10;10.80;99.90
20714;DHT22;10518;50.742;4.226;2023-11-21T04:27:37;10.80;99.90
20714;DHT22;10518;50.742;4.226;2023-11-21T04:30:04;10.80;99.90
20714;DHT22;10518;50.742;4.226;2023-11-21T04:32:30;10.80;99.90
20714;DHT22;10518;50.742;4.226;2023-11-21T04:34:56;10.70;99.90
20714;DHT22;10518;50.742;4.226;2023-11-21T04:37:21;10.80;99.90
20714;DHT22;10518;50.742;4.226;2023-11-21T04:39:48;10.70;99.90
20714;DHT22;10518;50.742;4.226;2023-11-21T04:42:13;10.70;99.90
20714;DHT22;10518;50.742;4.226;2023-11-21T04:44:39;10.80;99.90
20714;DHT22;10518;50.742;4.226;2023-11-21T04:47:06;10.70;99.90
20714;DHT22;10518;50.742;4.226;2023-11-21T04:49:33;10.90;99.90
20714;DHT22;10518;50.742;4.226;2023-11-21T04:51:59;10.90;99.90
20714;DHT22;10518;50.742;4.226;2023-11-21T04:54:24;10.80;99.90
20714;DHT22;10518;50.742;4.226;2023-11-21T04:56:50;11.00;99.90
20714;DHT22;10518;50.742;4.226;2023-11-21T04:59:15;11.10;99.90
20714;DHT22;10518;50.742;4.226;2023-11-21T05:01:41;11.10;99.90
20714;DHT22;10518;50.742;4.226;2023-11-21T05:04:06;11.10;99.90
20714;DHT22;10518;50.742;4.226;2023-11-21T05:06:34;11.00;99.90
20714;DHT22;10518;50.742;4.226;2023-11-21T05:09:00;10.90;99.90
20714;DHT22;10518;50.742;4.226;2023-11-21T05:11:26;10.90;99.90
20714;DHT22;10518;50.742;4.226;2023-11-21T05:13:52;10.80;99.90
20714;DHT22;10518;50.742;4.226;2023-11-21T05:16:19;10.70;99.90
20714;DHT22;10518;50.742;4.226;2023-11-21T05:18:45;10.70;99.90
20714;DHT22;10518;50.742;4.226;2023-11-21T05:21:10;10.80;99.90
20714;DHT22;10518;50.742;4.226;2023-11-21T05:23:36;10.70;99.90
20714;DHT22;10518;50.742;4.226;2023-11-21T05:26:02;10.70;99.90
20714;DHT22;10518;50.742;4.226;2023-11-21T05:28:28;10.80;99.90
20714;DHT22;10518;50.742;4.226;2023-11-21T05:30:54;10.70;99.90
20714;DHT22;10518;50.742;4.226;2023-11-21T05:33:20;10.80;99.90
20714;DHT22;10518;50.742;4.226;2023-11-21T05:35:46;10.70;99.90
20714;DHT22;10518;50.742;4.226;2023-11-21T05:38:14;10.70;99.90
20714;DHT22;10518;50.742;4.226;2023-11-21T05:40:39;10.70;99.90
20714;DHT22;10518;50.742;4.226;2023-11-21T05:43:05;10.70;99.90
20714;DHT22;10518;50.742;4.226;2023-11-21T05:45:30;10.60;99.90
20714;DHT22;10518;50.742;4.226;2023-11-21T05:47:57;10.60;99.90
20714;DHT22;10518;50.742;4.226;2023-11-21T05:50:23;10.60;99.90
20714;DHT22;10518;50.742;4.226;2023-11-21T05:52:49;10.70;99.90
20714;DHT22;10518;50.742;4.226;2023-11-21T05:55:15;10.70;99.90
20714;DHT22;10518;50.742;4.226;2023-11-21T05:57:42;10.80;99.90
20714;DHT22;10518;50.742;4.226;2023-11-21T06:00:13;10.70;99.90
20714;DHT22;10518;50.742;4.226;2023-11-21T06:02:48;10.70;99.90
20714;DHT22;10518;50.742;4.226;2023-11-21T06:05:17;10.70;99.90
20714;DHT22;10518;50.742;4.226;2023-11-21T06:07:43;10.70;99.90
20714;DHT22;10518;50.742;4.226;2023-11-21T06:10:10;10.80;99.90
20714;DHT22;10518;50.742;4.226;2023-11-21T06:12:38;11.00;99.90
20714;DHT22;10518;50.742;4.226;2023-11-21T06:15:06;11.10;99.90
20714;DHT22;10518;50.742;4.226;2023-11-21T06:17:34;11.00;99.90
20714;DHT22;10518;50.742;4.226;2023-11-21T06:20:05;11.00;99.90
20714;DHT22;10518;50.742;4.226;2023-11-21T06:22:38;10.90;99.90
20714;DHT22;10518;50.742;4.226;2023-11-21T06:25:05;10.90;99.90
20714;DHT22;10518;50.742;4.226;2023-11-21T06:27:32;11.00;99.90
20714;DHT22;10518;50.742;4.226;2023-11-21T06:29:59;11.00;99.90
20714;DHT22;10518;50.742;4.226;2023-11-21T06:32:25;11.10;99.90
20714;DHT22;10518;50.742;4.226;2023-11-21T06:34:51;11.10;99.90
20714;DHT22;10518;50.742;4.226;2023-11-21T06:37:20;11.10;99.90
20714;DHT22;10518;50.742;4.226;2023-11-21T06:39:48;11.10;99.90
20714;DHT22;10518;50.742;4.226;2023-11-21T06:42:14;11.10;99.90
20714;DHT22;10518;50.742;4.226;2023-11-21T06:44:40;11.00;99.90
20714;DHT22;10518;50.742;4.226;2023-11-21T06:47:07;11.10;99.90
20714;DHT22;10518;50.742;4.226;2023-11-21T06:49:32;11.10;99.90
20714;DHT22;10518;50.742;4.226;2023-11-21T06:51:58;11.10;99.90
20714;DHT22;10518;50.742;4.226;2023-11-21T06:54:24;11.10;99.90
20714;DHT22;10518;50.742;4.226;2023-11-21T06:56:50;11.10;99.90
20714;DHT22;10518;50.742;4.226;2023-11-21T06:59:16;11.10;99.90
20714;DHT22;10518;50.742;4.226;2023-11-21T07:01:41;11.10;99.90
20714;DHT22;10518;50.742;4.226;2023-11-21T07:04:07;11.10;99.90
20714;DHT22;10518;50.742;4.226;2023-11-21T07:06:34;11.10;99.90
20714;DHT22;10518;50.742;4.226;2023-11-21T07:09:00;11.20;99.90
20714;DHT22;10518;50.742;4.226;2023-11-21T07:11:27;11.10;99.90
20714;DHT22;10518;50.742;4.226;2023-11-21T07:13:52;11.10;99.90
20714;DHT22;10518;50.742;4.226;2023-11-21T07:16:18;11.20;99.90
20714;DHT22;10518;50.742;4.226;2023-11-21T07:18:44;11.20;99.90
20714;DHT22;10518;50.742;4.226;2023-11-21T07:21:10;11.20;99.90
20714;DHT22;10518;50.742;4.226;2023-11-21T07:23:37;11.20;99.90
20714;DHT22;10518;50.742;4.226;2023-11-21T07:26:03;11.10;99.90
20714;DHT22;10518;50.742;4.226;2023-11-21T07:28:34;11.20;99.90
20714;DHT22;10518;50.742;4.226;2023-11-21T07:30:59;11.20;99.90
20714;DHT22;10518;50.742;4.226;2023-11-21T07:33:25;11.30;99.90
20714;DHT22;10518;50.742;4.226;2023-11-21T07:35:51;11.30;99.90
20714;DHT22;10518;50.742;4.226;2023-11-21T07:38:17;11.30;99.90
20714;DHT22;10518;50.742;4.226;2023-11-21T07:40:43;11.30;99.90
20714;DHT22;10518;50.742;4.226;2023-11-21T07:43:08;11.40;99.90
20714;DHT22;10518;50.742;4.226;2023-11-21T07:45:36;11.50;99.90
20714;DHT22;10518;50.742;4.226;2023-11-21T07:48:01;11.50;99.90
20714;DHT22;10518;50.742;4.226;2023-11-21T07:50:28;11.50;99.90
20714;DHT22;10518;50.742;4.226;2023-11-21T07:52:54;11.50;99.90
20714;DHT22;10518;50.742;4.226;2023-11-21T07:55:20;11.60;99.90
20714;DHT22;10518;50.742;4.226;2023-11-21T07:57:46;11.60;99.90
20714;DHT22;10518;50.742;4.226;2023-11-21T08:00:12;11.60;99.90
20714;DHT22;10518;50.742;4.226;2023-11-21T08:02:39;11.60;99.90
20714;DHT22;10518;50.742;4.226;2023-11-21T08:05:07;11.60;99.90
20714;DHT22;10518;50.742;4.226;2023-11-21T08:07:33;11.70;99.90
20714;DHT22;10518;50.742;4.226;2023-11-21T08:09:59;11.70;99.90
20714;DHT22;10518;50.742;4.226;2023-11-21T08:12:24;11.70;99.90
20714;DHT22;10518;50.742;4.226;2023-11-21T08:14:53;11.70;99.90
20714;DHT22;10518;50.742;4.226;2023-11-21T08:17:18;11.70;99.90
20714;DHT22;10518;50.742;4.226;2023-11-21T08:19:45;11.70;99.90
20714;DHT22;10518;50.742;4.226;2023-11-21T08:22:17;11.70;99.90
20714;DHT22;10518;50.742;4.226;2023-11-21T08:24:44;11.80;99.90
20714;DHT22;10518;50.742;4.226;2023-11-21T08:27:09;11.80;99.90
20714;DHT22;10518;50.742;4.226;2023-11-21T08:29:35;12.00;99.90
20714;DHT22;10518;50.742;4.226;2023-11-21T08:32:02;12.10;99.90
20714;DHT22;10518;50.742;4.226;2023-11-21T08:34:27;12.10;99.90
20714;DHT22;10518;50.742;4.226;2023-11-21T08:36:54;12.00;99.90
20714;DHT22;10518;50.742;4.226;2023-11-21T08:39:21;12.00;99.90
20714;DHT22;10518;50.742;4.226;2023-11-21T08:41:49;12.10;99.90
20714;DHT22;10518;50.742;4.226;2023-11-21T08:44:16;12.10;99.90
20714;DHT22;10518;50.742;4.226;2023-11-21T08:46:43;12.00;99.90
20714;DHT22;10518;50.742;4.226;2023-11-21T08:49:11;11.90;99.90
20714;DHT22;10518;50.742;4.226;2023-11-21T08:51:37;12.00;99.90
20714;DHT22;10518;50.742;4.226;2023-11-21T08:54:03;12.10;99.90
20714;DHT22;10518;50.742;4.226;2023-11-21T08:56:33;12.10;99.90
20714;DHT22;10518;50.742;4.226;2023-11-21T08:58:58;12.10;99.90
20714;DHT22;10518;50.742;4.226;2023-11-21T09:01:27;12.20;99.90
20714;DHT22;10518;50.742;4.226;2023-11-21T09:03:53;12.40;99.90
20714;DHT22;10518;50.742;4.226;2023-11-21T09:06:19;12.40;99.90
20714;DHT22;10518;50.742;4.226;2023-11-21T09:08:44;12.40;99.90
20714;DHT22;10518;50.742;4.226;2023-11-21T09:11:10;12.40;99.90
20714;DHT22;10518;50.742;4.226;2023-11-21T09:13:35;12.40;99.90
20714;DHT22;10518;50.742;4.226;2023-11-21T09:16:02;12.30;99.90
20714;DHT22;10518;50.742;4.226;2023-11-21T09:18:27;12.20;99.90
20714;DHT22;10518;50.742;4.226;2023-11-21T09:20:53;12.20;99.90
20714;DHT22;10518;50.742;4.226;2023-11-21T09:23:18;12.20;99.90
20714;DHT22;10518;50.742;4.226;2023-11-21T09:25:44;12.40;99.90
20714;DHT22;10518;50.742;4.226;2023-11-21T09:28:11;12.40;99.90
20714;DHT22;10518;50.742;4.226;2023-11-21T09:30:37;12.50;99.90
20714;DHT22;10518;50.742;4.226;2023-11-21T09:33:03;12.70;99.90
20714;DHT22;10518;50.742;4.226;2023-11-21T09:35:33;12.70;99.90
20714;DHT22;10518;50.742;4.226;2023-11-21T09:37:59;12.70;99.90
20714;DHT22;10518;50.742;4.226;2023-11-21T09:40:27;12.60;99.90
20714;DHT22;10518;50.742;4.226;2023-11-21T09:42:55;12.60;99.90
20714;DHT22;10518;50.742;4.226;2023-11-21T09:45:28;12.40;99.90
20714;DHT22;10518;50.742;4.226;2023-11-21T09:47:55;12.50;99.90
20714;DHT22;10518;50.742;4.226;2023-11-21T09:50:22;12.50;99.90
20714;DHT22;10518;50.742;4.226;2023-11-21T09:53:03;12.50;99.90
20714;DHT22;10518;50.742;4.226;2023-11-21T09:55:36;12.50;99.90
20714;DHT22;10518;50.742;4.226;2023-11-21T09:58:03;12.60;99.90
20714;DHT22;10518;50.742;4.226;2023-11-21T10:00:30;12.90;99.90
20714;DHT22;10518;50.742;4.226;2023-11-21T10:02:58;13.10;99.90
20714;DHT22;10518;50.742;4.226;2023-11-21T10:05:24;13.30;99.90
20714;DHT22;10518;50.742;4.226;2023-11-21T10:07:50;13.20;99.90
20714;DHT22;10518;50.742;4.226;2023-11-21T10:10:18;12.90;99.90
20714;DHT22;10518;50.742;4.226;2023-11-21T10:12:49;12.90;99.90
20714;DHT22;10518;50.742;4.226;2023-11-21T10:15:16;13.10;99.90
20714;DHT22;10518;50.742;4.226;2023-11-21T10:17:44;13.00;99.90
20714;DHT22;10518;50.742;4.226;2023-11-21T10:20:11;13.10;99.90
20714;DHT22;10518;50.742;4.226;2023-11-21T10:22:42;13.10;99.90
20714;DHT22;10518;50.742;4.226;2023-11-21T10:25:08;13.20;99.90
20714;DHT22;10518;50.742;4.226;2023-11-21T10:27:35;13.20;99.90
20714;DHT22;10518;50.742;4.226;2023-11-21T10:30:02;13.10;99.90
20714;DHT22;10518;50.742;4.226;2023-11-21T10:32:30;13.00;99.90
20714;DHT22;10518;50.742;4.226;2023-11-21T10:35:01;13.10;99.90
20714;DHT22;10518;50.742;4.226;2023-11-21T10:37:35;13.00;99.90
20714;DHT22;10518;50.742;4.226;2023-11-21T10:40:01;13.00;99.90
20714;DHT22;10518;50.742;4.226;2023-11-21T10:42:26;12.90;99.90
20714;DHT22;10518;50.742;4.226;2023-11-21T10:44:53;12.50;99.90
20714;DHT22;10518;50.742;4.226;2023-11-21T10:47:19;12.50;99.90
20714;DHT22;10518;50.742;4.226;2023-11-21T10:49:48;12.70;99.90
20714;DHT22;10518;50.742;4.226;2023-11-21T10:52:14;12.90;99.90
20714;DHT22;10518;50.742;4.226;2023-11-21T10:54:43;13.10;99.90
20714;DHT22;10518;50.742;4.226;2023-11-21T10:57:10;13.00;99.90
20714;DHT22;10518;50.742;4.226;2023-11-21T10:59:36;12.80;99.90
20714;DHT22;10518;50.742;4.226;2023-11-21T11:02:21;12.90;99.90
20714;DHT22;10518;50.742;4.226;2023-11-21T11:04:48;13.20;99.90
20714;DHT22;10518;50.742;4.226;2023-11-21T11:07:14;13.40;99.90
20714;DHT22;10518;50.742;4.226;2023-11-21T11:09:41;13.30;99.90
20714;DHT22;10518;50.742;4.226;2023-11-21T11:12:08;13.20;99.90
20714;DHT22;10518;50.742;4.226;2023-11-21T11:14:35;13.50;99.90
20714;DHT22;10518;50.742;4.226;2023-11-21T11:17:02;13.20;99.90
20714;DHT22;10518;50.742;4.226;2023-11-21T11:19:29;12.90;99.90
20714;DHT22;10518;50.742;4.226;2023-11-21T11:22:20;13.10;99.90
20714;DHT22;10518;50.742;4.226;2023-11-21T11:24:57;13.50;99.90
20714;DHT22;10518;50.742;4.226;2023-11-21T11:27:35;13.50;99.90
20714;DHT22;10518;50.742;4.226;2023-11-21T11:33:11;13.70;99.90
20714;DHT22;10518;50.742;4.226;2023-11-21T11:36:00;13.60;99.90
20714;DHT22;10518;50.742;4.226;2023-11-21T11:38:31;13.60;99.90
20714;DHT22;10518;50.742;4.226;2023-11-21T11:41:02;13.60;99.90
20714;DHT22;10518;50.742;4.226;2023-11-21T11:43:29;13.50;99.90
20714;DHT22;10518;50.742;4.226;2023-11-21T11:45:56;13.30;99.90
20714;DHT22;10518;50.742;4.226;2023-11-21T11:48:22;13.50;99.90
20714;DHT22;10518;50.742;4.226;2023-11-21T11:51:09;13.20;99.90
20714;DHT22;10518;50.742;4.226;2023-11-21T11:53:36;13.30;99.90
20714;DHT22;10518;50.742;4.226;2023-11-21T11:56:29;13.60;99.90
20714;DHT22;10518;50.742;4.226;2023-11-21T11:58:58;13.60;99.90
20714;DHT22;10518;50.742;4.226;2023-11-21T12:01:26;13.50;99.90
20714;DHT22;10518;50.742;4.226;2023-11-21T12:06:36;13.10;99.90
20714;DHT22;10518;50.742;4.226;2023-11-21T12:09:02;13.30;99.90
20714;DHT22;10518;50.742;4.226;2023-11-21T12:11:32;13.50;99.90
20714;DHT22;10518;50.742;4.226;2023-11-21T12:13:58;13.20;99.90
20714;DHT22;10518;50.742;4.226;2023-11-21T12:16:25;13.30;99.90
20714;DHT22;10518;50.742;4.226;2023-11-21T12:18:53;13.20;99.90
20714;DHT22;10518;50.742;4.226;2023-11-21T12:21:20;13.20;99.90
20714;DHT22;10518;50.742;4.226;2023-11-21T12:23:46;13.00;99.90
20714;DHT22;10518;50.742;4.226;2023-11-21T12:26:13;13.00;99.90
20714;DHT22;10518;50.742;4.226;2023-11-21T12:28:39;12.90;99.90
20714;DHT22;10518;50.742;4.226;2023-11-21T12:31:05;12.90;99.90
20714;DHT22;10518;50.742;4.226;2023-11-21T12:33:32;12.90;99.90
20714;DHT22;10518;50.742;4.226;2023-11-21T12:35:58;13.10;99.90
20714;DHT22;10518;50.742;4.226;2023-11-21T12:38:24;13.20;99.90
20714;DHT22;10518;50.742;4.226;2023-11-21T12:40:50;13.10;99.90
20714;DHT22;10518;50.742;4.226;2023-11-21T12:43:17;12.90;99.90
20714;DHT22;10518;50.742;4.226;2023-11-21T12:45:44;12.80;99.90
20714;DHT22;10518;50.742;4.226;2023-11-21T12:48:09;12.80;99.90
20714;DHT22;10518;50.742;4.226;2023-11-21T12:50:38;12.90;99.90
20714;DHT22;10518;50.742;4.226;2023-11-21T12:53:10;12.80;99.90
20714;DHT22;10518;50.742;4.226;2023-11-21T12:55:38;12.50;99.90
20714;DHT22;10518;50.742;4.226;2023-11-21T12:58:06;12.50;99.90
20714;DHT22;10518;50.742;4.226;2023-11-21T13:00:44;12.30;99.90
20714;DHT22;10518;50.742;4.226;2023-11-21T13:03:13;12.30;99.90
20714;DHT22;10518;50.742;4.226;2023-11-21T13:05:42;12.30;99.90
20714;DHT22;10518;50.742;4.226;2023-11-21T13:08:11;12.30;99.90
20714;DHT22;10518;50.742;4.226;2023-11-21T13:10:39;12.40;99.90
20714;DHT22;10518;50.742;4.226;2023-11-21T13:13:07;12.20;99.90
20714;DHT22;10518;50.742;4.226;2023-11-21T13:15:34;12.20;99.90
20714;DHT22;10518;50.742;4.226;2023-11-21T13:18:02;12.40;99.90
20714;DHT22;10518;50.742;4.226;2023-11-21T13:20:28;12.40;99.90
20714;DHT22;10518;50.742;4.226;2023-11-21T13:22:56;12.30;99.90
20714;DHT22;10518;50.742;4.226;2023-11-21T13:25:27;12.30;99.90
20714;DHT22;10518;50.742;4.226;2023-11-21T13:27:58;12.50;99.90
20714;DHT22;10518;50.742;4.226;2023-11-21T13:30:25;12.30;99.90
20714;DHT22;10518;50.742;4.226;2023-11-21T13:33:02;12.30;99.90
20714;DHT22;10518;50.742;4.226;2023-11-21T13:35:28;12.60;99.90
20714;DHT22;10518;50.742;4.226;2023-11-21T13:38:08;12.80;99.90
20714;DHT22;10518;50.742;4.226;2023-11-21T13:40:35;12.70;99.90
20714;DHT22;10518;50.742;4.226;2023-11-21T13:43:05;13.00;99.90
20714;DHT22;10518;50.742;4.226;2023-11-21T13:45:36;12.90;99.90
20714;DHT22;10518;50.742;4.226;2023-11-21T13:48:02;12.90;99.90
20714;DHT22;10518;50.742;4.226;2023-11-21T13:50:27;12.80;99.90
20714;DHT22;10518;50.742;4.226;2023-11-21T13:53:01;12.70;99.90
20714;DHT22;10518;50.742;4.226;2023-11-21T13:55:42;12.70;99.90
20714;DHT22;10518;50.742;4.226;2023-11-21T13:58:07;13.10;99.90
20714;DHT22;10518;50.742;4.226;2023-11-21T14:00:37;13.00;99.90
20714;DHT22;10518;50.742;4.226;2023-11-21T14:03:12;13.00;99.90
20714;DHT22;10518;50.742;4.226;2023-11-21T14:05:45;12.70;99.90
20714;DHT22;10518;50.742;4.226;2023-11-21T14:08:19;12.80;99.90
20714;DHT22;10518;50.742;4.226;2023-11-21T14:10:49;12.60;99.90
20714;DHT22;10518;50.742;4.226;2023-11-21T14:13:23;12.50;99.90
20714;DHT22;10518;50.742;4.226;2023-11-21T14:15:50;12.80;99.90
20714;DHT22;10518;50.742;4.226;2023-11-21T14:18:26;12.80;99.90
20714;DHT22;10518;50.742;4.226;2023-11-21T14:21:04;12.50;99.90
20714;DHT22;10518;50.742;4.226;2023-11-21T14:23:31;12.30;99.90
20714;DHT22;10518;50.742;4.226;2023-11-21T14:25:58;12.60;99.90
20714;DHT22;10518;50.742;4.226;2023-11-21T14:28:26;12.70;99.90
20714;DHT22;10518;50.742;4.226;2023-11-21T14:30:52;12.60;99.90
20714;DHT22;10518;50.742;4.226;2023-11-21T14:33:17;12.40;99.90
20714;DHT22;10518;50.742;4.226;2023-11-21T14:35:43;12.70;99.90
20714;DHT22;10518;50.742;4.226;2023-11-21T14:38:09;12.80;99.90
20714;DHT22;10518;50.742;4.226;2023-11-21T14:40:36;12.80;99.90
20714;DHT22;10518;50.742;4.226;2023-11-21T14:43:04;12.90;99.90
20714;DHT22;10518;50.742;4.226;2023-11-21T14:45:33;12.90;99.90
20714;DHT22;10518;50.742;4.226;2023-11-21T14:48:02;12.50;99.90
20714;DHT22;10518;50.742;4.226;2023-11-21T14:50:35;12.40;99.90
20714;DHT22;10518;50.742;4.226;2023-11-21T14:53:06;12.20;99.90
20714;DHT22;10518;50.742;4.226;2023-11-21T14:55:33;12.30;99.90
20714;DHT22;10518;50.742;4.226;2023-11-21T14:58:17;12.40;99.90
20714;DHT22;10518;50.742;4.226;2023-11-21T15:00:53;12.30;99.90
20714;DHT22;10518;50.742;4.226;2023-11-21T15:03:26;12.20;99.90
20714;DHT22;10518;50.742;4.226;2023-11-21T15:06:01;12.40;99.90
20714;DHT22;10518;50.742;4.226;2023-11-21T15:08:44;12.30;99.90
20714;DHT22;10518;50.742;4.226;2023-11-21T15:11:11;12.10;99.90
20714;DHT22;10518;50.742;4.226;2023-11-21T15:13:41;12.00;99.90
20714;DHT22;10518;50.742;4.226;2023-11-21T15:16:08;12.00;99.90
20714;DHT22;10518;50.742;4.226;2023-11-21T15:18:37;11.90;99.90
20714;DHT22;10518;50.742;4.226;2023-11-21T15:21:03;12.00;99.90
20714;DHT22;10518;50.742;4.226;2023-11-21T15:23:29;12.00;99.90
20714;DHT22;10518;50.742;4.226;2023-11-21T15:25:56;12.10;99.90
20714;DHT22;10518;50.742;4.226;2023-11-21T15:28:23;12.10;99.90
20714;DHT22;10518;50.742;4.226;2023-11-21T15:30:50;12.00;99.90
20714;DHT22;10518;50.742;4.226;2023-11-21T15:33:16;12.10;99.90
20714;DHT22;10518;50.742;4.226;2023-11-21T15:35:42;11.90;99.90
20714;DHT22;10518;50.742;4.226;2023-11-21T15:38:08;11.90;99.90
20714;DHT22;10518;50.742;4.226;2023-11-21T15:40:34;11.80;99.90